Time;durP1;ratioP1;P1;durP2;ratioP2;P2;SDS_P1;SDS_P2;PMS_P1;PMS_P2;Temp;Humidity;BMP_temperature;BMP_pressure;BME280_temperature;BME280_humidity;BME280_pressure;Samples;Min_cycle;Max_cycle;Signal;HPM_P1;HPM_P2
2022/08/04 00:00:05;;;;;;;5.95;1.85;;;;;;;24.07;42.04;100284.91;10409430;28;20188;-80
2022/08/04 00:06:00;;;;;;;4.88;1.92;;;;;;;24.06;41.81;100286.19;10390228;28;20233;-83
2022/08/04 00:11:25;;;;;;;7.53;1.98;;;;;;;24.17;41.81;100286.06;10384268;28;20223;-80
2022/08/04 00:16:49;;;;;;;6.82;2.17;;;;;;;23.98;42.39;100280.94;10408501;28;20258;-79
2022/08/04 00:22:12;;;;;;;5.10;2.00;;;;;;;23.90;42.45;100277.34;10406718;28;20247;-80
2022/08/04 00:27:34;;;;;;;6.70;1.60;;;;;;;23.91;42.99;100274.03;10389941;28;20245;-85
2022/08/04 00:32:57;;;;;;;6.72;2.35;;;;;;;23.95;42.45;100266.16;10417125;28;20204;-82
2022/08/04 00:38:19;;;;;;;5.85;2.28;;;;;;;23.71;43.27;100270.13;10389550;28;20665;-84
2022/08/04 00:43:51;;;;;;;4.45;2.40;;;;;;;23.84;42.54;100268.34;10405203;28;20216;-82
2022/08/04 00:49:43;;;;;;;5.60;2.22;;;;;;;23.72;43.16;100257.38;10380155;28;20201;-80
2022/08/04 00:55:36;;;;;;;6.93;2.08;;;;;;;24.05;42.72;100249.19;10390991;28;20201;-82
2022/08/04 01:01:05;;;;;;;4.28;1.83;;;;;;;24.06;42.56;100247.94;10410950;28;20204;-85
2022/08/04 01:06:34;;;;;;;5.13;1.90;;;;;;;23.70;43.26;100245.47;10390010;28;20212;-85
2022/08/04 01:12:35;;;;;;;6.80;2.30;;;;;;;23.57;44.12;100244.34;10399110;28;20189;-85
2022/08/04 01:18:00;;;;;;;9.10;2.13;;;;;;;23.47;43.79;100248.16;10408311;28;20201;-84
2022/08/04 01:23:35;;;;;;;4.10;1.95;;;;;;;23.68;43.48;100242.22;10401930;28;20244;-82
2022/08/04 01:29:04;;;;;;;3.35;1.75;;;;;;;23.33;44.41;100234.75;10390542;28;20205;-84
2022/08/04 01:34:29;;;;;;;6.05;1.77;;;;;;;23.22;44.40;100234.88;10401993;28;20259;-84
2022/08/04 01:40:04;;;;;;;6.10;1.98;;;;;;;23.36;43.89;100230.22;10385544;28;20683;-82
2022/08/04 01:45:29;;;;;;;5.22;1.70;;;;;;;23.39;43.04;100230.19;10409420;28;20275;-80
2022/08/04 01:50:52;;;;;;;8.82;1.83;;;;;;;23.30;43.12;100214.66;10406816;28;20197;-84
2022/08/04 01:56:14;;;;;;;5.97;1.90;;;;;;;23.33;43.71;100220.38;10397290;28;20250;-85
2022/08/04 02:01:37;;;;;;;6.70;2.53;;;;;;;23.29;44.24;100207.28;10418462;28;20247;-85
2022/08/04 02:07:38;;;;;;;6.75;2.03;;;;;;;22.92;45.03;100200.19;10415166;28;20247;-85
2022/08/04 02:13:11;;;;;;;8.07;1.73;;;;;;;23.10;43.17;100197.19;10403155;28;20528;-82
2022/08/04 02:18:49;;;;;;;7.85;1.80;;;;;;;23.09;43.78;100192.66;10407205;28;20197;-80
2022/08/04 02:24:14;;;;;;;8.10;2.35;;;;;;;23.20;44.00;100187.63;10384114;28;20779;-82
2022/08/04 02:30:04;;;;;;;5.80;1.90;;;;;;;23.41;43.21;100173.06;10404562;28;20192;-80
2022/08/04 02:35:27;;;;;;;5.25;1.70;;;;;;;23.24;43.68;100176.94;10413028;28;20232;-82
2022/08/04 02:40:50;;;;;;;6.70;1.92;;;;;;;23.09;43.79;100170.50;10409403;28;20223;-85
2022/08/04 02:46:12;;;;;;;11.50;2.63;;;;;;;23.06;43.65;100159.00;10405307;28;20232;-80
2022/08/04 02:51:39;;;;;;;8.95;1.85;;;;;;;23.07;43.68;100155.69;10420603;28;20314;-85
2022/08/04 02:57:02;;;;;;;6.78;2.10;;;;;;;22.91;44.00;100159.13;10413890;28;20259;-85
2022/08/04 03:02:35;;;;;;;4.80;2.25;;;;;;;22.67;44.52;100153.63;10425792;28;20495;-83
2022/08/04 03:08:27;;;;;;;5.03;2.22;;;;;;;22.55;44.79;100141.41;10399757;28;20267;-85
2022/08/04 03:14:07;;;;;;;3.65;1.80;;;;;;;22.46;45.32;100137.34;10419254;28;20259;-85
2022/08/04 03:19:42;;;;;;;7.03;2.35;;;;;;;22.51;45.21;100140.56;10388844;28;20207;-84
2022/08/04 03:25:17;;;;;;;7.57;2.03;;;;;;;22.43;45.33;100132.44;10401584;28;20221;-85
2022/08/04 03:31:01;;;;;;;4.97;2.33;;;;;;;22.42;44.88;100131.63;10413538;28;20196;-83
2022/08/04 03:36:58;;;;;;;8.95;5.15;;;;;;;22.35;45.47;100128.81;10399139;28;20283;-81
2022/08/04 03:42:41;;;;;;;4.93;2.65;;;;;;;22.32;45.68;100123.09;10402635;28;20217;-77
2022/08/04 03:48:31;;;;;;;4.60;2.28;;;;;;;22.55;44.69;100129.91;10399633;28;20250;-78
2022/08/04 03:54:29;;;;;;;4.47;1.63;;;;;;;22.38;44.71;100127.97;10389857;28;20247;-78
2022/08/04 04:00:08;;;;;;;6.72;2.15;;;;;;;22.49;45.07;100125.03;10395154;28;20201;-78
2022/08/04 04:05:33;;;;;;;9.77;2.47;;;;;;;22.41;44.76;100121.38;10411385;28;20267;-78
2022/08/04 04:11:10;;;;;;;6.60;2.40;;;;;;;22.00;46.49;100123.31;10397126;28;20490;-78
2022/08/04 04:16:38;;;;;;;4.03;2.15;;;;;;;22.10;45.91;100113.84;10400637;28;20502;-78
2022/08/04 04:22:33;;;;;;;6.63;2.25;;;;;;;22.16;45.83;100117.88;10404985;28;20609;-78
2022/08/04 04:28:19;;;;;;;5.03;2.50;;;;;;;22.12;45.87;100117.88;10405856;28;20247;-80
2022/08/04 04:34:07;;;;;;;3.55;1.58;;;;;;;22.39;45.32;100120.16;10412967;28;20281;-78
2022/08/04 04:39:57;;;;;;;5.03;2.25;;;;;;;22.33;45.47;100125.56;10415781;28;20217;-78
2022/08/04 04:45:46;;;;;;;6.65;2.50;;;;;;;22.30;45.77;100129.25;10390597;28;20221;-78
2022/08/04 04:51:22;;;;;;;6.05;2.58;;;;;;;21.69;48.48;100134.53;10394423;28;20479;-79
2022/08/04 04:56:56;;;;;;;4.72;2.40;;;;;;;22.40;46.56;100125.47;10406146;28;20197;-82
2022/08/04 05:02:37;;;;;;;5.88;2.85;;;;;;;22.36;46.46;100126.78;10406944;28;20200;-80
2022/08/04 05:08:30;;;;;;;6.88;3.38;;;;;;;22.49;47.15;100125.84;10392568;28;20221;-78
2022/08/04 05:13:57;;;;;;;10.27;3.95;;;;;;;22.52;47.32;100130.72;10393675;28;20193;-79
2022/08/04 05:19:42;;;;;;;5.78;3.42;;;;;;;22.64;46.74;100126.53;10405076;28;20204;-78
2022/08/04 05:25:35;;;;;;;10.40;3.53;;;;;;;22.80;45.69;100128.88;10396157;28;20221;-83
2022/08/04 05:31:04;;;;;;;8.05;3.00;;;;;;;22.83;46.35;100128.84;10399739;28;20286;-83
2022/08/04 05:36:33;;;;;;;8.25;4.00;;;;;;;22.76;47.03;100117.44;10401214;28;20220;-84
2022/08/04 05:41:57;;;;;;;5.05;3.22;;;;;;;22.89;46.79;100126.34;10413171;28;20212;-83
2022/08/04 05:47:20;;;;;;;9.00;3.10;;;;;;;22.81;46.83;100122.69;10405341;28;20466;-84
2022/08/04 05:52:43;;;;;;;8.02;3.40;;;;;;;22.92;46.05;100125.47;10405748;28;20200;-84
2022/08/04 05:58:05;;;;;;;8.02;3.60;;;;;;;22.86;45.24;100132.94;10408732;28;20250;-85
2022/08/04 06:03:33;;;;;;;8.32;3.22;;;;;;;23.34;44.81;100126.28;10410434;28;20246;-84
2022/08/04 06:08:55;;;;;;;10.75;3.80;;;;;;;23.34;45.24;100132.84;10417715;28;20684;-84
2022/08/04 06:14:19;;;;;;;6.57;3.70;;;;;;;23.62;44.20;100128.81;10430457;28;20193;-84
2022/08/04 06:19:42;;;;;;;8.32;3.40;;;;;;;23.65;44.69;100121.41;10421093;28;20200;-83
2022/08/04 06:25:05;;;;;;;12.88;4.47;;;;;;;23.70;44.87;100121.72;10410777;28;20216;-85
2022/08/04 06:30:29;;;;;;;7.55;3.50;;;;;;;23.72;44.59;100122.13;10422359;28;20421;-83
2022/08/04 06:35:54;;;;;;;7.88;3.50;;;;;;;23.98;43.04;100128.34;10397896;28;20303;-84
2022/08/04 06:41:16;;;;;;;8.38;2.83;;;;;;;23.98;44.05;100125.47;10413738;28;20201;-84
2022/08/04 06:46:40;;;;;;;10.98;3.25;;;;;;;24.14;43.71;100119.88;10407015;28;20216;-84
2022/08/04 06:52:02;;;;;;;7.85;3.03;;;;;;;24.11;43.34;100117.88;10404543;28;20209;-82
2022/08/04 06:57:28;;;;;;;17.90;3.60;;;;;;;24.46;42.49;100117.34;10404981;28;20193;-84
2022/08/04 07:02:51;;;;;;;8.38;2.58;;;;;;;24.39;42.19;100113.75;10420367;28;20232;-84
2022/08/04 07:08:14;;;;;;;10.48;3.08;;;;;;;24.66;42.17;100106.72;10413298;28;20512;-83
2022/08/04 07:13:36;;;;;;;9.50;2.40;;;;;;;25.08;41.91;100109.28;10379295;28;20224;-84
2022/08/04 07:18:58;;;;;;;8.57;2.65;;;;;;;24.90;41.82;100104.66;10407156;28;20259;-84
2022/08/04 07:24:28;;;;;;;8.20;2.72;;;;;;;25.49;40.74;100106.84;10393863;28;20248;-84
2022/08/04 07:29:50;;;;;;;5.18;2.15;;;;;;;25.79;40.50;100107.84;10403627;28;20232;-81
2022/08/04 07:35:13;;;;;;;4.80;2.17;;;;;;;25.91;40.00;100101.38;10397371;28;20608;-84
2022/08/04 07:40:35;;;;;;;3.83;1.88;;;;;;;26.32;39.02;100095.06;10403541;28;20258;-83
2022/08/04 07:45:57;;;;;;;5.55;2.22;;;;;;;26.75;35.60;100092.72;10385730;28;20317;-83
2022/08/04 07:51:20;;;;;;;4.10;2.00;;;;;;;26.91;36.77;100099.78;10399398;28;20523;-84
2022/08/04 07:56:43;;;;;;;5.88;1.45;;;;;;;26.90;34.46;100103.94;10395137;28;20252;-83
2022/08/04 08:02:05;;;;;;;4.18;1.52;;;;;;;27.19;31.37;100096.06;10396825;28;20528;-83
2022/08/04 08:07:27;;;;;;;2.60;1.90;;;;;;;27.38;30.28;100100.94;10390768;28;20248;-84
2022/08/04 08:12:49;;;;;;;4.50;1.60;;;;;;;27.93;30.03;100101.81;10392395;28;20232;-83
2022/08/04 08:18:12;;;;;;;2.45;1.30;;;;;;;28.67;28.69;100095.66;10398204;28;20221;-84
2022/08/04 08:23:35;;;;;;;3.33;1.30;;;;;;;27.45;30.62;100102.81;10408536;28;20283;-84
2022/08/04 08:28:57;;;;;;;2.15;1.45;;;;;;;28.29;29.75;100100.69;10398865;28;20548;-84
2022/08/04 08:34:19;;;;;;;4.05;1.45;;;;;;;28.93;29.86;100101.41;10399709;28;20189;-85
2022/08/04 08:39:49;;;;;;;1.70;1.60;;;;;;;28.92;28.89;100099.78;10385513;28;20216;-84
2022/08/04 08:45:49;;;;;;;2.25;1.48;;;;;;;28.80;28.83;100093.56;10381399;28;20217;-83
2022/08/04 08:51:23;;;;;;;4.38;1.30;;;;;;;28.77;29.19;100091.59;10397190;28;20622;-84
2022/08/04 08:56:51;;;;;;;1.63;1.23;;;;;;;28.95;28.29;100099.66;10403647;28;20223;-83
2022/08/04 09:02:51;;;;;;;4.07;1.40;;;;;;;29.13;28.13;100093.22;10391657;28;20201;-84
2022/08/04 09:08:27;;;;;;;3.40;1.35;;;;;;;29.66;27.74;100094.16;10388745;28;20687;-85
2022/08/04 09:13:55;;;;;;;4.65;1.25;;;;;;;30.45;28.06;100095.53;10383256;28;20252;-83
2022/08/04 09:19:26;;;;;;;6.32;1.27;;;;;;;30.31;26.96;100089.50;10391889;28;20197;-83
2022/08/04 09:25:03;;;;;;;1.50;0.98;;;;;;;30.19;26.21;100092.03;10408026;28;20244;-83
2022/08/04 09:30:38;;;;;;;2.78;1.15;;;;;;;30.49;25.09;100084.56;10388654;28;20299;-83
2022/08/04 09:36:25;;;;;;;1.58;0.68;;;;;;;31.05;25.89;100070.97;10395681;28;20700;-83
2022/08/04 09:42:27;;;;;;;3.17;0.75;;;;;;;30.37;25.14;100081.78;10407162;28;20258;-83
2022/08/04 09:48:07;;;;;;;2.22;0.88;;;;;;;30.50;25.38;100073.75;10401250;28;20280;-83
2022/08/04 09:54:11;;;;;;;3.78;0.85;;;;;;;30.56;24.20;100077.69;10400229;28;20247;-85
2022/08/04 09:59:58;;;;;;;2.67;1.05;;;;;;;30.32;24.41;100080.31;10380453;28;20220;-83
2022/08/04 10:05:41;;;;;;;2.15;0.55;;;;;;;31.27;22.96;100080.34;10394366;28;20248;-83
2022/08/04 10:11:18;;;;;;;4.65;1.00;;;;;;;31.04;23.31;100081.00;10410561;28;20224;-83
2022/08/04 10:17:06;;;;;;;3.55;0.68;;;;;;;30.50;23.69;100085.38;10403993;28;20198;-84
2022/08/04 10:23:07;;;;;;;2.03;0.60;;;;;;;30.46;23.36;100079.69;10388691;28;20213;-84
2022/08/04 10:28:35;;;;;;;2.50;0.63;;;;;;;30.54;23.36;100089.78;10403145;28;20209;-82
2022/08/04 10:34:13;;;;;;;6.80;1.00;;;;;;;30.69;23.95;100087.06;10395679;28;20201;-83
2022/08/04 10:45:59;;;;;;;3.40;0.70;;;;;;;30.71;24.61;100087.38;10397448;28;20221;-83
2022/08/04 10:51:40;;;;;;;1.55;0.80;;;;;;;31.49;24.77;100086.00;10407932;28;20540;-84
2022/08/04 10:57:12;;;;;;;1.38;0.65;;;;;;;31.03;23.47;100085.19;10409019;28;20193;-83
2022/08/04 11:02:43;;;;;;;1.27;0.80;;;;;;;31.67;22.98;100088.91;10403989;28;20525;-83
2022/08/04 11:08:22;;;;;;;2.88;0.82;;;;;;;31.14;24.49;100091.34;10398376;28;20521;-83
2022/08/04 11:13:46;;;;;;;4.13;1.02;;;;;;;32.33;22.39;100095.69;10409061;28;20223;-83
2022/08/04 11:19:30;;;;;;;5.82;1.20;;;;;;;30.87;23.47;100121.22;10393186;28;20201;-83
2022/08/04 11:25:18;;;;;;;2.38;1.00;;;;;;;32.39;21.88;100106.69;10411800;28;20322;-83
2022/08/04 11:30:52;;;;;;;3.85;0.93;;;;;;;31.81;22.64;100113.66;10396736;28;20243;-83
2022/08/04 11:36:32;;;;;;;5.25;1.52;;;;;;;31.60;23.65;100121.31;10406640;28;20248;-84
2022/08/04 11:42:13;;;;;;;3.88;1.52;;;;;;;32.15;22.85;100133.66;10400026;28;20631;-84
2022/08/04 11:47:48;;;;;;;3.92;1.30;;;;;;;32.33;22.98;100129.91;10402750;28;20696;-83
2022/08/04 11:53:15;;;;;;;5.35;1.70;;;;;;;32.86;22.76;100133.06;10398336;28;20225;-84
2022/08/04 11:58:38;;;;;;;4.82;1.70;;;;;;;31.71;23.43;100144.09;10388723;28;20582;-84
2022/08/04 12:04:31;;;;;;;2.17;1.35;;;;;;;31.35;23.86;100148.59;10394036;28;20209;-84
2022/08/04 12:10:23;;;;;;;4.97;1.98;;;;;;;31.73;23.80;100153.19;10396680;28;20680;-83
2022/08/04 12:15:55;;;;;;;5.40;1.40;;;;;;;31.52;23.62;100149.94;10395304;28;20483;-83
2022/08/04 12:21:33;;;;;;;8.70;1.60;;;;;;;31.67;25.41;100155.91;10398333;28;20200;-84
2022/08/04 12:26:58;;;;;;;6.00;1.73;;;;;;;31.46;25.65;100163.56;10386332;28;20989;-82
2022/08/04 12:32:26;;;;;;;9.48;2.13;;;;;;;30.56;26.92;100164.94;10411737;28;20224;-83
2022/08/04 12:38:04;;;;;;;5.40;1.73;;;;;;;30.58;26.65;100163.16;10402582;28;20275;-83
2022/08/04 12:43:26;;;;;;;3.90;1.55;;;;;;;30.92;26.29;100165.03;10410061;28;20477;-83
2022/08/04 12:48:49;;;;;;;7.65;1.42;;;;;;;30.72;27.81;100161.75;10397331;28;20621;-83
2022/08/04 12:54:11;;;;;;;2.85;1.40;;;;;;;29.19;29.10;100155.22;10399454;28;20562;-84
2022/08/04 12:59:42;;;;;;;6.55;1.58;;;;;;;29.42;28.80;100159.75;10404236;28;20255;-83
2022/08/04 13:05:06;;;;;;;10.68;1.80;;;;;;;30.03;28.92;100161.22;10392173;28;20314;-83
2022/08/04 13:10:29;;;;;;;7.95;1.83;;;;;;;29.60;30.06;100150.41;10389813;28;20262;-83
2022/08/04 13:15:59;;;;;;;7.10;1.67;;;;;;;29.68;29.86;100169.19;10401097;28;20193;-83
2022/08/04 13:21:23;;;;;;;3.72;1.52;;;;;;;28.87;30.58;100172.94;10402348;28;20676;-84
2022/08/04 13:26:49;;;;;;;4.80;1.50;;;;;;;28.95;30.79;100166.41;10404434;28;20235;-83
2022/08/04 13:32:16;;;;;;;7.15;1.98;;;;;;;29.70;30.03;100169.53;10402411;28;20193;-83
2022/08/04 13:37:39;;;;;;;6.72;1.95;;;;;;;29.90;30.15;100155.50;10391418;28;20240;-83
2022/08/04 13:43:01;;;;;;;5.85;1.50;;;;;;;29.75;30.18;100163.13;10412779;28;20667;-83
2022/08/04 13:48:24;;;;;;;9.40;2.00;;;;;;;29.15;31.06;100178.53;10399089;28;20216;-83
2022/08/04 13:53:57;;;;;;;7.45;2.10;;;;;;;29.34;31.25;100173.75;10400077;28;20282;-84
2022/08/04 13:59:22;;;;;;;4.50;1.70;;;;;;;29.38;31.05;100168.63;10404957;28;20232;-83
2022/08/04 14:04:51;;;;;;;6.90;1.67;;;;;;;29.30;31.99;100166.44;10413184;28;20278;-83
2022/08/04 14:10:14;;;;;;;6.28;2.10;;;;;;;29.21;31.92;100158.47;10385628;28;20209;-84
2022/08/04 14:15:44;;;;;;;9.40;2.47;;;;;;;29.61;32.44;100152.03;10398662;28;20511;-83
2022/08/04 14:21:15;;;;;;;6.75;2.65;;;;;;;29.10;33.19;100158.81;10404934;28;20618;-83
2022/08/04 14:26:39;;;;;;;8.23;2.30;;;;;;;29.16;33.28;100144.50;10400462;28;20267;-82
2022/08/04 14:32:07;;;;;;;7.53;2.67;;;;;;;28.24;34.70;100153.41;10409556;28;20657;-82
2022/08/04 14:37:30;;;;;;;4.80;2.55;;;;;;;28.32;34.92;100152.75;10400306;28;20244;-82
2022/08/04 14:42:52;;;;;;;9.75;2.47;;;;;;;29.03;33.26;100146.63;10406458;28;20220;-82
2022/08/04 14:48:17;;;;;;;6.22;2.10;;;;;;;29.04;33.27;100151.97;10391479;28;20847;-84
2022/08/04 14:53:47;;;;;;;5.50;2.20;;;;;;;28.82;33.38;100149.03;10421867;28;20227;-83
2022/08/04 14:59:10;;;;;;;4.55;2.00;;;;;;;29.04;31.64;100145.34;10398446;28;20216;-84
2022/08/04 15:04:33;;;;;;;6.43;2.25;;;;;;;29.03;33.30;100141.66;10390428;28;20362;-84
2022/08/04 15:09:57;;;;;;;7.25;1.60;;;;;;;28.89;32.37;100139.25;10399224;28;20223;-84
2022/08/04 15:15:20;;;;;;;6.93;2.03;;;;;;;28.78;33.33;100130.91;10378950;28;20522;-86
2022/08/04 15:20:43;;;;;;;4.43;2.42;;;;;;;28.94;34.30;100127.06;10387092;28;20663;-84
2022/08/04 15:26:07;;;;;;;4.88;1.90;;;;;;;28.93;31.55;100130.41;10398921;28;20973;-85
2022/08/04 15:31:36;;;;;;;7.43;2.00;;;;;;;28.72;32.87;100124.09;10403811;28;20220;-85
2022/08/04 15:37:02;;;;;;;3.28;1.88;;;;;;;28.25;33.07;100126.88;10387892;28;20630;-84
2022/08/04 15:42:35;;;;;;;7.40;2.10;;;;;;;29.02;32.93;100127.59;10400135;28;20250;-82
2022/08/04 15:48:04;;;;;;;5.07;1.70;;;;;;;29.00;34.20;100128.09;10382853;28;20244;-79
2022/08/04 15:53:27;;;;;;;4.93;1.70;;;;;;;27.82;34.16;100124.50;10393535;28;20232;-79
2022/08/04 15:58:53;;;;;;;5.90;2.35;;;;;;;28.72;32.71;100132.00;10392686;28;20266;-78
2022/08/04 16:04:23;;;;;;;5.28;1.63;;;;;;;28.80;32.60;100150.75;10395217;28;20240;-83
2022/08/04 16:09:46;;;;;;;9.57;1.75;;;;;;;27.90;33.72;100149.06;10405530;28;20240;-81
2022/08/04 16:15:40;;;;;;;6.55;1.65;;;;;;;27.93;33.73;100151.06;10387460;28;20192;-82
2022/08/04 16:21:17;;;;;;;6.70;1.83;;;;;;;27.08;34.67;100154.25;10387862;28;20299;-81
2022/08/04 16:26:41;;;;;;;3.97;1.58;;;;;;;27.65;34.30;100152.69;10392022;28;20240;-80
2022/08/04 16:32:03;;;;;;;4.47;1.77;;;;;;;27.14;34.99;100150.81;10396847;28;20585;-79
2022/08/04 16:37:36;;;;;;;4.90;1.52;;;;;;;27.01;35.64;100159.41;10406959;28;20229;-79
2022/08/04 16:43:26;;;;;;;6.68;1.80;;;;;;;27.30;35.52;100160.31;10405743;28;20240;-84
2022/08/04 16:49:05;;;;;;;2.85;1.60;;;;;;;27.28;36.00;100159.13;10381837;28;20617;-82
2022/08/04 16:54:31;;;;;;;2.38;1.50;;;;;;;27.57;35.59;100157.06;10384670;28;20670;-82
2022/08/04 16:59:53;;;;;;;5.82;1.67;;;;;;;27.44;35.70;100151.19;10370110;28;20274;-84
2022/08/04 17:05:25;;;;;;;4.00;1.70;;;;;;;26.79;36.56;100149.69;10400794;28;20286;-86
2022/08/04 17:10:49;;;;;;;5.35;1.88;;;;;;;27.73;34.66;100153.28;10386765;28;20192;-83
2022/08/04 17:16:14;;;;;;;4.78;1.33;;;;;;;27.38;34.81;100149.34;10390902;28;20252;-85
2022/08/04 17:21:37;;;;;;;4.05;1.50;;;;;;;27.30;34.64;100148.72;10389460;28;20268;-82
2022/08/04 17:26:59;;;;;;;3.50;1.20;;;;;;;27.63;34.20;100158.13;10375920;28;20252;-83
2022/08/04 17:32:22;;;;;;;3.95;1.30;;;;;;;27.85;33.60;100155.41;10380079;28;20237;-84
2022/08/04 17:37:44;;;;;;;5.30;1.70;;;;;;;28.02;33.00;100159.03;10410007;28;20228;-81
2022/08/04 17:43:07;;;;;;;2.42;1.55;;;;;;;27.82;34.24;100167.94;10399031;28;20211;-80
2022/08/04 17:48:29;;;;;;;6.20;2.95;;;;;;;27.49;34.35;100172.19;10393903;28;20212;-80
2022/08/04 17:53:57;;;;;;;31.60;17.92;;;;;;;27.75;34.34;100179.72;10392810;28;20196;-81
2022/08/04 17:59:25;;;;;;;4.75;1.65;;;;;;;26.77;35.63;100190.63;10388956;28;20227;-80
2022/08/04 18:04:49;;;;;;;3.80;1.95;;;;;;;26.90;35.29;100193.59;10409535;28;20216;-84
2022/08/04 18:10:14;;;;;;;5.90;2.35;;;;;;;27.23;35.19;100192.28;10389272;28;20290;-79
2022/08/04 18:15:36;;;;;;;2.72;1.80;;;;;;;27.47;34.71;100196.59;10380638;28;21334;-84
2022/08/04 18:21:00;;;;;;;6.43;2.00;;;;;;;27.36;34.74;100198.19;10403756;28;20247;-88
2022/08/04 18:26:22;;;;;;;3.60;3.28;;;;;;;27.24;35.47;100207.56;10386442;28;20590;-83
2022/08/04 18:31:44;;;;;;;7.30;1.88;;;;;;;26.97;35.98;100199.19;10378007;28;20266;-80
2022/08/04 18:37:07;;;;;;;3.88;1.83;;;;;;;26.91;36.24;100206.81;10411982;28;20282;-81
2022/08/04 18:42:30;;;;;;;3.50;1.80;;;;;;;26.63;37.30;100200.44;10411016;28;20282;-85
2022/08/04 18:47:52;;;;;;;5.43;1.88;;;;;;;26.36;37.73;100200.66;10406849;28;20556;-85
2022/08/04 18:53:15;;;;;;;5.80;1.92;;;;;;;26.27;38.70;100202.53;10395031;28;20251;-83
2022/08/04 18:58:38;;;;;;;5.75;2.13;;;;;;;25.69;39.91;100213.59;10382847;28;20213;-86
2022/08/04 19:04:02;;;;;;;6.00;1.98;;;;;;;25.94;39.45;100210.25;10413618;28;20196;-78
2022/08/04 19:09:25;;;;;;;4.03;1.85;;;;;;;25.10;40.99;100237.38;10405268;28;20248;-83
2022/08/04 19:14:48;;;;;;;4.13;2.53;;;;;;;25.82;40.07;100229.03;10399907;28;21351;-84
2022/08/04 19:20:10;;;;;;;9.25;2.28;;;;;;;25.69;40.43;100233.81;10370047;28;20308;-83
2022/08/04 19:25:33;;;;;;;3.88;2.17;;;;;;;25.37;41.34;100233.63;10389330;28;20270;-86
2022/08/04 19:30:56;;;;;;;5.25;2.42;;;;;;;25.00;42.02;100233.41;10389248;28;20618;-86
2022/08/04 19:36:18;;;;;;;5.15;1.98;;;;;;;25.35;41.59;100237.78;10400424;28;20250;-78
2022/08/04 19:41:41;;;;;;;3.67;1.85;;;;;;;25.27;41.45;100247.78;10384799;28;20282;-79
2022/08/04 19:47:03;;;;;;;6.13;2.55;;;;;;;25.29;41.69;100251.06;10390678;28;20236;-82
2022/08/04 19:52:25;;;;;;;4.25;2.00;;;;;;;25.24;41.76;100251.56;10402735;28;20213;-78
2022/08/04 19:57:47;;;;;;;2.40;1.77;;;;;;;25.03;42.07;100263.44;10390870;28;20193;-78
2022/08/04 20:03:12;;;;;;;6.55;2.50;;;;;;;25.27;41.57;100272.94;10398773;28;20251;-78
2022/08/04 20:08:34;;;;;;;3.83;1.90;;;;;;;24.85;42.95;100277.31;10401168;28;20304;-87
2022/08/04 20:13:56;;;;;;;5.78;2.78;;;;;;;24.82;43.31;100276.13;10395490;28;20287;-78
2022/08/04 20:19:19;;;;;;;5.45;2.35;;;;;;;25.10;42.22;100286.41;10385076;28;20209;-79
2022/08/04 20:24:41;;;;;;;6.45;2.13;;;;;;;24.52;44.24;100284.78;10383847;28;20201;-79
2022/08/04 20:30:03;;;;;;;3.35;1.98;;;;;;;24.41;44.60;100284.13;10385628;28;20617;-86
2022/08/04 20:35:29;;;;;;;7.90;2.30;;;;;;;24.58;43.72;100285.94;10388926;28;20282;-77
2022/08/04 20:40:51;;;;;;;4.20;2.05;;;;;;;24.60;44.44;100292.88;10401910;28;20205;-78
2022/08/04 20:46:14;;;;;;;5.32;2.47;;;;;;;24.27;45.50;100303.22;10384462;28;20234;-77
2022/08/04 20:51:38;;;;;;;7.15;2.35;;;;;;;24.16;45.12;100310.34;10390971;28;20196;-84
2022/08/04 20:57:00;;;;;;;4.93;2.05;;;;;;;24.05;46.17;100318.28;10390035;28;20225;-76
2022/08/04 21:02:23;;;;;;;6.55;2.60;;;;;;;24.10;45.88;100314.94;10390061;28;20285;-81
2022/08/04 21:07:46;;;;;;;4.35;2.30;;;;;;;24.32;45.53;100316.34;10398915;28;20287;-77
2022/08/04 21:13:08;;;;;;;5.95;2.35;;;;;;;24.34;46.02;100331.09;10392749;28;20200;-77
2022/08/04 21:18:30;;;;;;;9.88;2.63;;;;;;;24.12;46.22;100332.59;10391200;28;20193;-77
2022/08/04 21:23:52;;;;;;;5.13;2.47;;;;;;;24.06;46.48;100328.56;10392290;28;20266;-77
2022/08/04 21:29:14;;;;;;;5.60;2.50;;;;;;;24.06;46.58;100343.78;10404742;28;20256;-77
2022/08/04 21:34:37;;;;;;;7.07;2.70;;;;;;;23.82;47.32;100376.50;10397364;28;20589;-78
2022/08/04 21:39:59;;;;;;;8.68;2.78;;;;;;;24.06;45.54;100374.66;10390154;28;20240;-77
2022/08/04 21:45:21;;;;;;;6.55;2.30;;;;;;;23.89;45.63;100371.50;10388911;28;20232;-77
2022/08/04 21:50:43;;;;;;;7.35;2.95;;;;;;;23.67;45.81;100390.25;10394489;28;20217;-78
2022/08/04 21:56:06;;;;;;;4.10;1.85;;;;;;;23.15;46.27;100409.50;10386120;28;20537;-77
2022/08/04 22:01:28;;;;;;;4.20;1.48;;;;;;;22.78;46.05;100435.94;10402139;28;20221;-76
2022/08/04 22:06:50;;;;;;;3.63;1.60;;;;;;;23.17;44.82;100427.97;10405781;28;20625;-76
2022/08/04 22:12:13;;;;;;;2.95;1.48;;;;;;;22.96;45.38;100433.81;10390452;28;20193;-77
2022/08/04 22:17:35;;;;;;;4.03;1.27;;;;;;;22.24;45.73;100441.03;10394831;28;20193;-77
2022/08/04 22:22:57;;;;;;;2.67;1.50;;;;;;;23.22;43.56;100447.66;10412005;28;20197;-77
2022/08/04 22:28:20;;;;;;;3.80;1.08;;;;;;;23.32;42.39;100439.38;10409384;28;20317;-77
2022/08/04 22:33:43;;;;;;;6.25;1.17;;;;;;;23.07;44.11;100431.69;10413713;28;20540;-77
2022/08/04 22:39:05;;;;;;;3.28;1.27;;;;;;;23.02;43.12;100423.53;10394375;28;20691;-76
2022/08/04 22:44:27;;;;;;;2.08;0.77;;;;;;;23.18;42.93;100432.47;10395628;28;20205;-76
2022/08/04 22:49:50;;;;;;;4.70;1.25;;;;;;;22.97;43.62;100423.94;10394985;28;20384;-77
2022/08/04 22:55:12;;;;;;;3.08;1.17;;;;;;;23.06;42.56;100430.06;10393661;28;20201;-77
2022/08/04 23:00:34;;;;;;;2.63;1.23;;;;;;;22.44;44.64;100447.94;10387606;28;20189;-78
2022/08/04 23:06:00;;;;;;;1.67;1.17;;;;;;;22.59;44.32;100456.56;10395382;28;20270;-77
2022/08/04 23:11:23;;;;;;;2.90;1.02;;;;;;;21.92;45.67;100446.78;10391148;28;20309;-77
2022/08/04 23:16:45;;;;;;;3.88;0.90;;;;;;;21.82;45.42;100436.97;10395657;28;20270;-77
2022/08/04 23:22:07;;;;;;;2.75;1.17;;;;;;;22.55;44.45;100396.22;10407397;28;20594;-77
2022/08/04 23:27:34;;;;;;;3.88;1.13;;;;;;;22.50;44.01;100411.84;10399859;28;20212;-77
2022/08/04 23:32:56;;;;;;;2.17;0.88;;;;;;;22.74;44.02;100412.16;10393327;28;20683;-76
2022/08/04 23:38:18;;;;;;;3.67;1.15;;;;;;;22.18;48.03;100247.47;10402511;28;20228;-77
2022/08/04 23:43:41;;;;;;;6.13;1.95;;;;;;;21.46;53.83;100274.72;10399693;28;20193;-77
2022/08/04 23:49:05;;;;;;;4.43;1.80;;;;;;;21.01;54.97;100299.28;10404595;28;20216;-79
2022/08/04 23:54:27;;;;;;;5.72;1.92;;;;;;;20.96;56.25;100257.50;10407000;28;20201;-78
2022/08/04 23:59:52;;;;;;;4.50;2.78;;;;;;;21.29;55.70;100258.31;10401693;28;20223;-78
